Time;durP1;ratioP1;P1;durP2;ratioP2;P2;SDS_P1;SDS_P2;PMS_P1;PMS_P2;Temp;Humidity;BMP_temperature;BMP_pressure;BME280_temperature;BME280_humidity;BME280_pressure;Samples;Min_cycle;Max_cycle;Signal;HPM_P1;HPM_P2
2023/07/25 00:01:13;;;;;;;;;;;;;;;-144.99;100.00;52401.22;4999035;28;19925;-65
2023/07/25 00:03:40;;;;;;;;;;;;;;;-144.99;100.00;52399.19;5004924;28;19944;-65
2023/07/25 00:06:07;;;;;;;;;;;;;;;-144.99;100.00;52368.59;5001760;28;19929;-66
2023/07/25 00:08:33;;;;;;;;;;;;;;;-144.99;100.00;52419.56;5012592;28;19925;-66
2023/07/25 00:11:00;;;;;;;;;;;;;;;-144.99;100.00;52374.72;5002287;28;20327;-66
2023/07/25 00:13:27;;;;;;;;;;;;;;;-144.99;100.00;52407.31;5004260;28;20363;-63
2023/07/25 00:15:53;;;;;;;;;;;;;;;-144.99;100.00;52429.75;5007755;28;20310;-62
2023/07/25 00:18:21;;;;;;;;;;;;;;;-144.99;100.00;52382.88;5005963;28;19929;-62
2023/07/25 00:20:48;;;;;;;;;;;;;;;-144.99;100.00;52403.25;5006964;28;19953;-62
2023/07/25 00:23:15;;;;;;;;;;;;;;;-144.99;100.00;52403.25;5005886;28;19968;-62
2023/07/25 00:25:41;;;;;;;;;;;;;;;-144.99;100.00;52407.31;5003877;28;20364;-63
2023/07/25 00:28:08;;;;;;;;;;;;;;;-144.99;100.00;52403.25;5000713;28;19925;-62
2023/07/25 00:30:35;;;;;;;;;;;;;;;-144.99;100.00;52423.63;5004887;28;20016;-62
2023/07/25 00:33:01;;;;;;;;;;;;;;;-144.99;100.00;52407.31;5001977;28;20394;-63
2023/07/25 00:35:29;;;;;;;;;;;;;;;-144.99;100.00;52427.72;5001839;28;20226;-65
2023/07/25 00:37:56;;;;;;;;;;;;;;;-144.99;100.00;52419.56;5002235;28;19933;-64
2023/07/25 00:40:23;;;;;;;;;;;;;;;-144.99;100.00;52407.31;5002629;28;20371;-63
2023/07/25 00:42:54;;;;;;;;;;;;;;;-144.99;100.00;52415.47;5006950;28;19931;-64
2023/07/25 00:45:21;;;;;;;;;;;;;;;-144.99;100.00;52391.03;5007501;28;20397;-64
2023/07/25 00:47:47;;;;;;;;;;;;;;;-144.99;100.00;52395.09;5003973;28;19929;-65
2023/07/25 00:50:14;;;;;;;;;;;;;;;-144.99;100.00;52415.47;5006282;28;19944;-65
2023/07/25 00:52:42;;;;;;;;;;;;;;;-144.99;100.00;52407.31;5001154;28;19933;-64
2023/07/25 00:55:09;;;;;;;;;;;;;;;-144.99;100.00;52388.97;5003213;28;19941;-65
2023/07/25 00:57:36;;;;;;;;;;;;;;;-144.99;100.00;52407.31;5001949;28;19940;-65
2023/07/25 01:00:02;;;;;;;;;;;;;;;-144.99;100.00;52403.25;5002467;28;20451;-65
2023/07/25 01:02:30;;;;;;;;;;;;;;;-144.99;100.00;52386.94;5008606;28;19925;-65
2023/07/25 01:04:56;;;;;;;;;;;;;;;-144.99;100.00;52407.31;5006148;28;19929;-65
2023/07/25 01:07:24;;;;;;;;;;;;;;;-144.99;100.00;52370.63;5008446;28;19929;-65
2023/07/25 01:09:52;;;;;;;;;;;;;;;-144.99;100.00;52393.06;5009947;28;19929;-63
2023/07/25 01:12:18;;;;;;;;;;;;;;;-144.99;100.00;52407.31;5009052;28;19926;-62
2023/07/25 01:14:45;;;;;;;;;;;;;;;-144.99;100.00;52403.25;5007315;28;20410;-62
2023/07/25 01:17:12;;;;;;;;;;;;;;;-144.99;100.00;52431.78;5008740;28;20371;-62
2023/07/25 01:19:40;;;;;;;;;;;;;;;-144.99;100.00;52382.88;5005072;28;20052;-62
2023/07/25 01:22:07;;;;;;;;;;;;;;;-144.99;100.00;52411.41;5001709;28;19930;-62
2023/07/25 01:24:35;;;;;;;;;;;;;;;-144.99;100.00;52409.38;5000265;28;19976;-65
2023/07/25 01:27:02;;;;;;;;;;;;;;;-144.99;100.00;52370.63;4998870;28;19940;-64
2023/07/25 01:29:29;;;;;;;;;;;;;;;-144.99;100.00;52407.31;5003074;28;20020;-65
2023/07/25 01:31:56;;;;;;;;;;;;;;;-144.99;100.00;52378.78;5000987;28;20646;-65
2023/07/25 01:34:22;;;;;;;;;;;;;;;-144.99;100.00;52374.72;5001021;28;19944;-65
2023/07/25 01:36:49;;;;;;;;;;;;;;;-144.99;100.00;52391.03;5003314;28;20560;-63
2023/07/25 01:39:16;;;;;;;;;;;;;;;-144.99;100.00;52435.88;4999174;28;19933;-62
2023/07/25 01:41:44;;;;;;;;;;;;;;;-144.99;100.00;52399.19;5000566;28;19933;-63
2023/07/25 01:44:11;;;;;;;;;;;;;;;-144.99;100.00;52403.25;5000521;28;20025;-65
2023/07/25 01:46:39;;;;;;;;;;;;;;;-144.99;100.00;52399.19;5001288;28;19929;-64
2023/07/25 01:49:06;;;;;;;;;;;;;;;-144.99;100.00;52395.09;5000572;28;19929;-64
2023/07/25 01:51:33;;;;;;;;;;;;;;;-144.99;100.00;52407.31;5000286;28;19988;-64
2023/07/25 01:53:59;;;;;;;;;;;;;;;-144.99;100.00;52413.44;5003017;28;20418;-64
2023/07/25 01:56:26;;;;;;;;;;;;;;;-144.99;100.00;52378.78;5000379;28;20426;-64
2023/07/25 01:58:54;;;;;;;;;;;;;;;-144.99;100.00;52419.56;5001566;28;19937;-64
2023/07/25 02:01:21;;;;;;;;;;;;;;;-144.99;100.00;52391.03;5000857;28;19930;-63
2023/07/25 02:03:48;;;;;;;;;;;;;;;-144.99;100.00;52407.31;4999577;28;20378;-63
2023/07/25 02:06:14;;;;;;;;;;;;;;;-144.99;100.00;52427.72;5004271;28;19948;-62
2023/07/25 02:08:41;;;;;;;;;;;;;;;-144.99;100.00;52431.78;5009431;28;19926;-64
2023/07/25 02:11:08;;;;;;;;;;;;;;;-144.99;100.00;52419.56;5008062;28;19934;-62
2023/07/25 02:13:35;;;;;;;;;;;;;;;-144.99;100.00;52415.47;4997505;28;20051;-63
2023/07/25 02:16:03;;;;;;;;;;;;;;;-144.99;100.00;52374.72;4998465;28;19933;-63
2023/07/25 02:18:29;;;;;;;;;;;;;;;-144.99;100.00;52423.63;4997597;28;20386;-62
2023/07/25 02:20:56;;;;;;;;;;;;;;;-144.99;100.00;52423.63;4999685;28;20133;-62
2023/07/25 02:23:23;;;;;;;;;;;;;;;-144.99;100.00;52403.25;4999037;28;19929;-63
2023/07/25 02:25:49;;;;;;;;;;;;;;;-144.99;100.00;52407.31;4999572;28;20326;-62
2023/07/25 02:28:16;;;;;;;;;;;;;;;-144.99;100.00;52378.78;4999820;28;19940;-62
2023/07/25 02:30:42;;;;;;;;;;;;;;;-144.99;100.00;52382.88;4998767;28;19925;-62
2023/07/25 02:33:11;;;;;;;;;;;;;;;-144.99;100.00;52419.56;4998436;28;19933;-62
2023/07/25 02:35:37;;;;;;;;;;;;;;;-144.99;100.00;52439.94;4999505;28;20363;-62
2023/07/25 02:38:04;;;;;;;;;;;;;;;-144.99;100.00;52435.88;4997544;28;19930;-62
2023/07/25 02:40:30;;;;;;;;;;;;;;;-144.99;100.00;52391.03;4998736;28;19929;-62
2023/07/25 02:42:57;;;;;;;;;;;;;;;-144.99;100.00;52421.59;4998147;28;19929;-63
2023/07/25 02:45:24;;;;;;;;;;;;;;;-144.99;100.00;52391.03;4997944;28;20655;-62
2023/07/25 02:47:50;;;;;;;;;;;;;;;-144.99;100.00;52370.63;5001600;28;20003;-62
2023/07/25 02:50:18;;;;;;;;;;;;;;;-144.99;100.00;52431.78;5009608;28;19960;-62
2023/07/25 02:52:45;;;;;;;;;;;;;;;-144.99;100.00;52395.09;4999923;28;19929;-63
2023/07/25 02:55:12;;;;;;;;;;;;;;;-144.99;100.00;52399.19;4999026;28;19940;-62
2023/07/25 02:57:38;;;;;;;;;;;;;;;-144.99;100.00;52433.81;4996910;28;19933;-61
2023/07/25 03:00:06;;;;;;;;;;;;;;;-144.99;100.00;52423.63;4997244;28;20169;-62
2023/07/25 03:02:33;;;;;;;;;;;;;;;-144.99;100.00;52403.25;4996867;28;19952;-62
2023/07/25 03:04:59;;;;;;;;;;;;;;;-144.99;100.00;52435.88;4997690;28;20058;-60
2023/07/25 03:07:27;;;;;;;;;;;;;;;-144.99;100.00;52407.31;5006766;28;19937;-60
2023/07/25 03:09:54;;;;;;;;;;;;;;;-144.99;100.00;52407.31;5006793;28;19925;-60
2023/07/25 03:12:21;;;;;;;;;;;;;;;-144.99;100.00;52419.56;5003227;28;20345;-60
2023/07/25 03:14:47;;;;;;;;;;;;;;;-144.99;100.00;52409.38;5003687;28;19937;-60
2023/07/25 03:17:14;;;;;;;;;;;;;;;-144.99;100.00;52423.63;5006067;28;20310;-60
2023/07/25 03:19:41;;;;;;;;;;;;;;;-144.99;100.00;52399.19;5007876;28;19932;-61
2023/07/25 03:22:07;;;;;;;;;;;;;;;-144.99;100.00;52431.78;5007930;28;19952;-58
2023/07/25 03:24:35;;;;;;;;;;;;;;;-144.99;100.00;52452.16;5007594;28;19926;-68
2023/07/25 03:27:02;;;;;;;;;;;;;;;-144.99;100.00;52391.03;5001983;28;20355;-60
2023/07/25 03:29:29;;;;;;;;;;;;;;;-144.99;100.00;52415.47;5010160;28;20367;-60
2023/07/25 03:31:55;;;;;;;;;;;;;;;-144.99;100.00;52407.31;5010317;28;19929;-62
2023/07/25 03:34:22;;;;;;;;;;;;;;;-144.99;100.00;52407.31;5006666;28;19929;-61
2023/07/25 03:36:48;;;;;;;;;;;;;;;-144.99;100.00;52427.72;5007181;28;19933;-61
2023/07/25 03:39:15;;;;;;;;;;;;;;;-144.99;100.00;52413.44;5007746;28;19929;-61
2023/07/25 03:41:43;;;;;;;;;;;;;;;-144.99;100.00;52431.78;5007511;28;19926;-61
2023/07/25 03:44:11;;;;;;;;;;;;;;;-144.99;100.00;52419.56;5003725;28;19933;-61
2023/07/25 03:46:38;;;;;;;;;;;;;;;-144.99;100.00;52395.09;4999553;28;19929;-61
2023/07/25 03:49:05;;;;;;;;;;;;;;;-144.99;100.00;52403.25;4997881;28;19936;-63
2023/07/25 03:51:31;;;;;;;;;;;;;;;-144.99;100.00;52435.88;4998928;28;19925;-63
2023/07/25 03:53:58;;;;;;;;;;;;;;;-144.99;100.00;52431.78;4998929;28;19929;-63
2023/07/25 03:56:24;;;;;;;;;;;;;;;-144.99;100.00;52431.78;5000960;28;20248;-64
2023/07/25 03:58:52;;;;;;;;;;;;;;;-144.99;100.00;52417.53;4999650;28;19940;-65
2023/07/25 04:01:19;;;;;;;;;;;;;;;-144.99;100.00;52395.09;5001497;28;19933;-65
2023/07/25 04:03:46;;;;;;;;;;;;;;;-144.99;100.00;52439.94;5003281;28;20012;-65
2023/07/25 04:06:12;;;;;;;;;;;;;;;-144.99;100.00;52399.19;5001057;28;19980;-61
2023/07/25 04:08:39;;;;;;;;;;;;;;;-144.99;100.00;52395.09;4995804;28;19925;-61
2023/07/25 04:11:06;;;;;;;;;;;;;;;-144.99;100.00;52382.88;5002629;28;19990;-63
2023/07/25 04:13:32;;;;;;;;;;;;;;;-144.99;100.00;52413.44;5000212;28;20340;-67
2023/07/25 04:16:00;;;;;;;;;;;;;;;-144.99;100.00;52382.88;5010633;28;19925;-64
2023/07/25 04:18:27;;;;;;;;;;;;;;;-144.99;100.00;52376.75;5011057;28;20183;-65
2023/07/25 04:20:54;;;;;;;;;;;;;;;-144.99;100.00;52415.47;5010224;28;20440;-65
2023/07/25 04:23:21;;;;;;;;;;;;;;;-144.99;100.00;52370.63;5017022;22;19937;-64
2023/07/25 04:25:48;;;;;;;;;;;;;;;-144.99;100.00;52382.88;4991959;28;19926;-60
2023/07/25 04:28:15;;;;;;;;;;;;;;;-144.99;100.00;52401.22;4991446;28;19930;-59
2023/07/25 04:30:42;;;;;;;;;;;;;;;-144.99;100.00;52407.31;4984658;28;19934;-63
2023/07/25 04:33:10;;;;;;;;;;;;;;;-144.99;100.00;52433.81;4985957;28;20327;-67
2023/07/25 04:35:36;;;;;;;;;;;;;;;-144.99;100.00;52407.31;4987728;28;19933;-65
2023/07/25 04:38:03;;;;;;;;;;;;;;;-144.99;100.00;52378.78;4986550;28;19933;-65
2023/07/25 04:40:30;;;;;;;;;;;;;;;-144.99;100.00;52395.09;4985286;28;19933;-66
2023/07/25 04:42:56;;;;;;;;;;;;;;;-144.99;100.00;52382.88;4986159;28;19989;-66
2023/07/25 04:45:23;;;;;;;;;;;;;;;-144.99;100.00;52415.47;4989933;28;19949;-66
2023/07/25 04:47:49;;;;;;;;;;;;;;;-144.99;100.00;52417.53;4990627;28;19940;-66
2023/07/25 04:50:17;;;;;;;;;;;;;;;-144.99;100.00;52362.50;4995062;28;19926;-66
2023/07/25 04:52:44;;;;;;;;;;;;;;;-144.99;100.00;52407.31;4989684;28;20402;-66
2023/07/25 04:55:11;;;;;;;;;;;;;;;-144.99;100.00;52407.31;4985464;28;19940;-66
2023/07/25 04:57:37;;;;;;;;;;;;;;;-144.99;100.00;52391.03;4992226;28;20465;-66
2023/07/25 05:00:04;;;;;;;;;;;;;;;-144.99;100.00;52399.19;4983933;28;20394;-66
2023/07/25 05:02:31;;;;;;;;;;;;;;;-144.99;100.00;52391.03;4985823;28;20307;-66
2023/07/25 05:04:58;;;;;;;;;;;;;;;-144.99;100.00;52431.78;4991027;28;19933;-66
2023/07/25 05:07:26;;;;;;;;;;;;;;;-144.99;100.00;52374.72;4994048;28;19930;-65
2023/07/25 05:09:52;;;;;;;;;;;;;;;-144.99;100.00;52386.94;4984676;28;19930;-66
2023/07/25 05:12:19;;;;;;;;;;;;;;;-144.99;100.00;52362.50;4985811;28;20450;-74
2023/07/25 05:14:46;;;;;;;;;;;;;;;-144.99;100.00;52374.72;4988578;28;19981;-73
2023/07/25 05:17:12;;;;;;;;;;;;;;;-144.99;100.00;52348.22;4987647;28;19941;-74
2023/07/25 05:19:41;;;;;;;;;;;;;;;-144.99;100.00;52366.56;4989287;28;19941;-74
2023/07/25 05:22:08;;;;;;;;;;;;;;;-144.99;100.00;52350.25;4984726;28;19930;-73
2023/07/25 05:24:36;;;;;;;;;;;;;;;-144.99;100.00;52354.34;4987881;28;19925;-68
2023/07/25 05:27:03;;;;;;;;;;;;;;;-144.99;100.00;52342.09;4988575;28;19937;-73
2023/07/25 05:29:30;;;;;;;;;;;;;;;-144.99;100.00;52362.50;4297416;28;10000636;-73
2023/07/25 05:31:56;;;;;;;;;;;;;;;-144.99;100.00;52354.34;4981409;28;20276;-74
2023/07/25 05:34:23;;;;;;;;;;;;;;;-144.99;100.00;52338.03;4983677;28;20153;-73
2023/07/25 05:36:50;;;;;;;;;;;;;;;-144.99;100.00;52342.09;4979342;28;20353;-72
2023/07/25 05:39:16;;;;;;;;;;;;;;;-144.99;100.00;52370.63;4980791;28;19937;-74
2023/07/25 05:41:44;;;;;;;;;;;;;;;-144.99;100.00;52346.19;4985703;28;20396;-71
2023/07/25 05:44:11;;;;;;;;;;;;;;;-144.99;100.00;52370.63;4983346;28;19949;-72
2023/07/25 05:46:37;;;;;;;;;;;;;;;-144.99;100.00;52360.44;4984147;28;19938;-71
2023/07/25 05:49:04;;;;;;;;;;;;;;;-144.99;100.00;52378.78;4984672;28;19938;-71
2023/07/25 05:51:31;;;;;;;;;;;;;;;-144.99;100.00;52354.34;4985676;28;19929;-70
2023/07/25 05:53:57;;;;;;;;;;;;;;;-144.99;100.00;52336.00;4992708;28;19932;-72
2023/07/25 05:56:24;;;;;;;;;;;;;;;-144.99;100.00;52311.53;4994365;28;20202;-70
2023/07/25 05:58:52;;;;;;;;;;;;;;;-144.99;100.00;52378.78;4987697;28;19930;-71
2023/07/25 06:01:19;;;;;;;;;;;;;;;-144.99;100.00;52344.16;4989046;28;19930;-71
2023/07/25 06:03:46;;;;;;;;;;;;;;;-144.99;100.00;52356.38;4987921;28;19950;-72
2023/07/25 06:06:12;;;;;;;;;;;;;;;-144.99;100.00;52325.81;4988758;28;20402;-72
2023/07/25 06:08:39;;;;;;;;;;;;;;;-144.99;99.85;52350.25;4991385;28;19941;-71
2023/07/25 06:11:05;;;;;;;;;;;;;;;-144.99;99.52;52350.25;4991672;28;20314;-72
2023/07/25 06:13:33;;;;;;;;;;;;;;;-144.99;99.87;52350.25;4987338;28;19934;-71
2023/07/25 06:16:01;;;;;;;;;;;;;;;-144.99;100.00;52346.19;4991431;28;20003;-71
2023/07/25 06:18:28;;;;;;;;;;;;;;;-144.99;99.91;52366.56;4985721;28;19929;-73
2023/07/25 06:20:55;;;;;;;;;;;;;;;-144.99;99.98;52342.09;4981673;28;20473;-72
2023/07/25 06:23:21;;;;;;;;;;;;;;;-144.99;98.42;52362.50;4985479;28;20441;-71
2023/07/25 06:25:48;;;;;;;;;;;;;;;-144.99;97.71;52391.03;4987417;28;19945;-72
2023/07/25 06:28:15;;;;;;;;;;;;;;;-144.99;96.30;52350.25;4977981;28;19933;-73
2023/07/25 06:30:42;;;;;;;;;;;;;;;-144.99;96.56;52327.84;4980393;28;19937;-72
2023/07/25 06:33:10;;;;;;;;;;;;;;;-144.99;95.32;52317.66;4980984;28;21217;-72
2023/07/25 06:35:36;;;;;;;;;;;;;;;-144.99;94.20;52336.00;4981126;28;20369;-71
2023/07/25 06:38:03;;;;;;;;;;;;;;;-144.99;93.36;52346.19;4980371;28;19933;-73
2023/07/25 06:40:30;;;;;;;;;;;;;;;-144.99;91.90;52327.84;4980402;28;19941;-73
2023/07/25 06:42:56;;;;;;;;;;;;;;;-144.99;91.03;52342.09;4986229;28;19925;-72
2023/07/25 06:45:23;;;;;;;;;;;;;;;-144.99;90.29;52289.13;4987735;28;19929;-72
2023/07/25 06:47:49;;;;;;;;;;;;;;;-144.99;89.24;52350.25;4985979;28;19930;-73
2023/07/25 06:50:19;;;;;;;;;;;;;;;-144.99;89.03;52321.72;4987000;28;19930;-72
2023/07/25 06:52:46;;;;;;;;;;;;;;;-144.99;89.48;52333.94;4986642;28;19949;-72
2023/07/25 06:55:12;;;;;;;;;;;;;;;-144.99;89.71;52305.41;4986517;28;19984;-72
2023/07/25 06:57:39;;;;;;;;;;;;;;;-144.99;89.20;52325.81;4986678;28;20345;-72
2023/07/25 07:00:07;;;;;;;;;;;;;;;-144.99;88.56;52342.09;4647575;28;10000223;-71
2023/07/25 07:02:34;;;;;;;;;;;;;;;-144.99;88.98;52329.88;4986964;28;20034;-72
2023/07/25 07:05:01;;;;;;;;;;;;;;;-144.99;89.65;52358.41;4988303;28;19933;-72
2023/07/25 07:07:29;;;;;;;;;;;;;;;-144.99;90.79;52311.53;4985729;28;19926;-73
2023/07/25 07:09:55;;;;;;;;;;;;;;;-144.99;90.96;52329.88;4987304;28;20367;-73
2023/07/25 07:12:22;;;;;;;;;;;;;;;-144.99;89.93;52313.56;4987012;28;19930;-71
2023/07/25 07:14:48;;;;;;;;;;;;;;;-144.99;89.71;52350.25;4986219;28;20174;-72
2023/07/25 07:17:15;;;;;;;;;;;;;;;-144.99;89.53;52299.31;4988075;28;20248;-71
2023/07/25 07:19:42;;;;;;;;;;;;;;;-144.99;88.57;52329.88;4990273;28;19937;-72
2023/07/25 07:22:08;;;;;;;;;;;;;;;-144.99;88.06;52354.34;4996331;28;19926;-73
2023/07/25 07:24:36;;;;;;;;;;;;;;;-144.99;89.05;52376.75;4989334;28;19937;-71
2023/07/25 07:27:03;;;;;;;;;;;;;;;-144.99;90.00;52338.03;4986358;28;19926;-72
2023/07/25 07:29:30;;;;;;;;;;;;;;;-144.99;92.38;52350.25;4986054;28;20241;-71
2023/07/25 07:31:56;;;;;;;;;;;;;;;-144.99;93.61;52346.19;4986918;28;19926;-74
2023/07/25 07:34:23;;;;;;;;;;;;;;;-144.99;93.41;52344.16;4989198;28;19941;-72
2023/07/25 07:36:50;;;;;;;;;;;;;;;-144.99;94.11;52350.25;4987554;28;19929;-71
2023/07/25 07:39:16;;;;;;;;;;;;;;;-144.99;94.39;52333.94;4994241;28;19930;-72
2023/07/25 07:41:44;;;;;;;;;;;;;;;-144.99;94.99;52350.25;4995069;28;19961;-75
2023/07/25 07:44:11;;;;;;;;;;;;;;;-144.99;95.54;52354.34;4995483;28;19926;-74
2023/07/25 07:46:38;;;;;;;;;;;;;;;-144.99;95.52;52366.56;4990967;28;19938;-72
2023/07/25 07:49:04;;;;;;;;;;;;;;;-144.99;95.78;52370.63;4995282;28;19949;-71
2023/07/25 07:51:31;;;;;;;;;;;;;;;-144.99;96.91;52358.41;4994351;28;19939;-70
2023/07/25 07:53:57;;;;;;;;;;;;;;;-144.99;97.35;52391.03;4993529;28;19945;-72
2023/07/25 07:56:24;;;;;;;;;;;;;;;-144.99;98.59;52415.47;4994966;28;19933;-71
2023/07/25 07:58:52;;;;;;;;;;;;;;;-144.99;100.00;52393.06;4988024;28;19952;-70
2023/07/25 08:01:21;;;;;;;;;;;;;;;-144.99;100.00;52362.50;4993367;28;20017;-71
2023/07/25 08:03:48;;;;;;;;;;;;;;;-144.99;100.00;52376.75;4993225;28;20032;-71
2023/07/25 08:06:15;;;;;;;;;;;;;;;-144.99;100.00;52411.41;4991932;28;19934;-71
2023/07/25 08:08:42;;;;;;;;;;;;;;;-144.99;100.00;52419.56;4993554;28;19937;-73
2023/07/25 08:11:08;;;;;;;;;;;;;;;-144.99;100.00;52376.75;4993408;28;19930;-69
2023/07/25 08:13:35;;;;;;;;;;;;;;;-144.99;100.00;52407.31;4983760;28;20017;-69
2023/07/25 08:16:03;;;;;;;;;;;;;;;-144.99;100.00;52423.63;4992676;28;19933;-74
2023/07/25 08:18:30;;;;;;;;;;;;;;;-144.99;100.00;52439.94;4987703;28;20024;-71
2023/07/25 08:20:57;;;;;;;;;;;;;;;-144.99;100.00;52413.44;4978351;28;19936;-71
2023/07/25 08:23:24;;;;;;;;;;;;;;;-144.99;100.00;52370.63;4988925;28;19933;-70
2023/07/25 08:25:51;;;;;;;;;;;;;;;-144.99;100.00;52386.94;4993527;28;19936;-71
2023/07/25 08:28:18;;;;;;;;;;;;;;;-144.99;100.00;52366.56;4995663;28;19926;-73
2023/07/25 08:30:45;;;;;;;;;;;;;;;-144.99;100.00;52399.19;4986499;28;20014;-72
2023/07/25 08:33:15;;;;;;;;;;;;;;;-144.99;100.00;52360.44;4987072;28;19937;-69
2023/07/25 08:35:41;;;;;;;;;;;;;;;-144.99;100.00;52391.03;4991073;28;19985;-69
2023/07/25 08:38:08;;;;;;;;;;;;;;;-144.99;100.00;52374.72;4986766;28;20387;-70
2023/07/25 08:40:35;;;;;;;;;;;;;;;-144.99;100.00;52372.69;4993764;28;20362;-74
2023/07/25 08:43:03;;;;;;;;;;;;;;;-144.99;100.00;52407.31;4997640;28;19937;-72
2023/07/25 08:45:30;;;;;;;;;;;;;;;-144.99;100.00;52386.94;4987977;28;19940;-73
2023/07/25 08:48:00;;;;;;;;;;;;;;;-144.99;100.00;52386.94;4993480;28;19925;-70
2023/07/25 08:50:30;;;;;;;;;;;;;;;-144.99;100.00;52423.63;4988382;28;20397;-73
2023/07/25 08:52:58;;;;;;;;;;;;;;;-144.99;100.00;52401.22;4985192;28;20127;-72
2023/07/25 08:55:26;;;;;;;;;;;;;;;-144.99;100.00;52391.03;4985774;28;19937;-74
2023/07/25 08:57:53;;;;;;;;;;;;;;;-144.99;100.00;52403.25;4993514;28;20028;-73
2023/07/25 09:00:21;;;;;;;;;;;;;;;-144.99;100.00;52423.63;4988979;28;19930;-70
2023/07/25 09:02:48;;;;;;;;;;;;;;;-144.99;100.00;52382.88;4989154;28;19985;-71
2023/07/25 09:05:15;;;;;;;;;;;;;;;-144.99;100.00;52399.19;4980089;28;20391;-71
2023/07/25 09:07:43;;;;;;;;;;;;;;;-144.99;100.00;52384.91;4992324;28;20016;-71
2023/07/25 09:10:10;;;;;;;;;;;;;;;-144.99;100.00;52370.63;4982601;28;20322;-71
2023/07/25 09:12:37;;;;;;;;;;;;;;;-144.99;100.00;52374.72;4983999;28;20316;-71
2023/07/25 09:15:04;;;;;;;;;;;;;;;-144.99;100.00;52346.19;5001044;28;19925;-70
2023/07/25 09:17:31;;;;;;;;;;;;;;;-144.99;100.00;52354.34;4991039;28;20310;-72
2023/07/25 09:19:58;;;;;;;;;;;;;;;-144.99;100.00;52293.19;4990162;28;19965;-71
2023/07/25 09:22:28;;;;;;;;;;;;;;;-144.99;100.00;52338.03;4984581;28;19930;-72
2023/07/25 09:24:56;;;;;;;;;;;;;;;-144.99;100.00;52305.41;4982175;28;20340;-72
2023/07/25 09:27:23;;;;;;;;;;;;;;;-144.99;100.00;52285.03;4985620;28;19933;-73
2023/07/25 09:29:50;;;;;;;;;;;;;;;-144.99;97.56;52280.97;4985135;28;19953;-71
2023/07/25 09:32:22;;;;;;;;;;;;;;;-144.99;95.60;52297.25;4989403;28;19937;-76
2023/07/25 09:34:54;;;;;;;;;;;;;;;-144.99;93.71;52313.56;4986767;28;20489;-73
2023/07/25 09:37:21;;;;;;;;;;;;;;;-144.99;92.23;52338.03;4986560;28;20052;-72
2023/07/25 09:39:47;;;;;;;;;;;;;;;-144.99;92.39;52305.41;4988555;28;19934;-71
2023/07/25 09:42:15;;;;;;;;;;;;;;;-144.99;93.33;52313.56;4984211;28;19944;-73
2023/07/25 09:44:46;;;;;;;;;;;;;;;-144.99;93.27;52321.72;4989876;28;19932;-72
2023/07/25 09:47:13;;;;;;;;;;;;;;;-144.99;92.70;52378.78;4990362;28;19926;-74
2023/07/25 09:49:39;;;;;;;;;;;;;;;-144.99;92.95;52285.03;4988708;28;19976;-72
2023/07/25 09:52:08;;;;;;;;;;;;;;;-144.99;92.98;52338.03;4974698;28;19930;-73
2023/07/25 09:54:35;;;;;;;;;;;;;;;-144.99;92.63;52309.50;4985730;28;20447;-72
2023/07/25 09:57:01;;;;;;;;;;;;;;;-144.99;91.04;52299.31;4986441;28;19972;-72
2023/07/25 09:59:30;;;;;;;;;;;;;;;-144.99;89.53;52272.81;4639640;28;9999863;-72
2023/07/25 10:01:58;;;;;;;;;;;;;;;-144.99;87.37;52301.34;4983058;28;19934;-72
2023/07/25 10:04:25;;;;;;;;;;;;;;;-144.99;88.62;52350.25;4981008;28;19926;-71
2023/07/25 10:06:53;;;;;;;;;;;;;;;-144.99;82.77;52289.13;4988365;28;19930;-73
2023/07/25 10:09:20;;;;;;;;;;;;;;;-144.99;81.78;52248.34;4983345;28;20390;-72
2023/07/25 10:11:47;;;;;;;;;;;;;;;-144.99;81.57;52297.25;4981453;28;19929;-72
2023/07/25 10:14:14;;;;;;;;;;;;;;;-144.99;82.06;52313.56;4983236;28;20331;-73
2023/07/25 10:16:42;;;;;;;;;;;;;;;-144.99;79.97;52317.66;4981590;28;19926;-71
2023/07/25 10:19:09;;;;;;;;;;;;;;;-144.99;80.62;52329.88;4980785;28;19937;-73
2023/07/25 10:21:46;;;;;;;;;;;;;;;-144.99;80.65;52313.56;4981587;28;19940;-72
2023/07/25 10:24:13;;;;;;;;;;;;;;;-144.99;81.91;52264.66;4986368;28;19930;-72
2023/07/25 10:26:52;;;;;;;;;;;;;;;-144.99;80.10;52276.88;4981466;28;19929;-73
2023/07/25 10:29:34;;;;;;;;;;;;;;;-144.99;78.73;52236.13;4980905;28;20450;-71
2023/07/25 10:32:03;;;;;;;;;;;;;;;-144.99;78.80;52285.03;4974343;28;19949;-71
2023/07/25 10:34:43;;;;;;;;;;;;;;;-144.99;76.82;52207.59;4987943;28;20024;-73
2023/07/25 10:37:25;;;;;;;;;;;;;;;-144.99;73.08;52264.66;4990635;28;19930;-71
2023/07/25 10:40:05;;;;;;;;;;;;;;;-144.99;71.24;52223.88;4993935;28;20247;-72
2023/07/25 10:42:49;;;;;;;;;;;;;;;-144.99;70.82;52179.06;4998648;28;20008;-72
2023/07/25 10:45:22;;;;;;;;;;;;;;;-144.99;70.00;52187.19;4995291;28;19957;-72
2023/07/25 10:47:50;;;;;;;;;;;;;;;-144.99;70.51;52168.84;4985188;28;19930;-72
2023/07/25 10:50:18;;;;;;;;;;;;;;;-144.99;69.21;52230.00;4994156;28;19940;-73
2023/07/25 10:52:45;;;;;;;;;;;;;;;-144.99;68.21;52227.97;4986163;28;19929;-73
2023/07/25 10:55:12;;;;;;;;;;;;;;;-144.99;68.17;52248.34;4990588;28;20522;-73
2023/07/25 10:57:39;;;;;;;;;;;;;;;-144.99;67.53;52225.94;4988522;28;19930;-73
2023/07/25 11:00:08;;;;;;;;;;;;;;;-144.99;68.02;52142.38;4983338;28;19962;-71
2023/07/25 11:02:35;;;;;;;;;;;;;;;-144.99;68.52;52227.97;4985377;28;19933;-74
2023/07/25 11:05:23;;;;;;;;;;;;;;;-144.99;68.07;52158.66;4987277;28;19936;-72
2023/07/25 11:07:51;;;;;;;;;;;;;;;-144.99;66.50;52236.13;4982313;28;19930;-72
2023/07/25 11:10:21;;;;;;;;;;;;;;;-144.99;67.02;52179.06;4993638;28;19930;-73
2023/07/25 11:12:49;;;;;;;;;;;;;;;-144.99;66.16;52185.16;4983349;28;19934;-73
2023/07/25 11:15:16;;;;;;;;;;;;;;;-144.99;64.21;52166.81;4987705;28;19933;-72
2023/07/25 11:17:42;;;;;;;;;;;;;;;-144.99;63.87;52211.66;4984891;28;19945;-72
2023/07/25 11:20:13;;;;;;;;;;;;;;;-144.99;64.05;52181.09;4987364;28;19932;-73
2023/07/25 11:22:42;;;;;;;;;;;;;;;-144.99;64.67;52191.28;4975719;28;19929;-73
2023/07/25 11:25:09;;;;;;;;;;;;;;;-144.99;65.32;52244.28;4982237;28;20552;-73
2023/07/25 11:27:36;;;;;;;;;;;;;;;-144.99;65.81;52199.44;4987932;28;19937;-71
2023/07/25 11:30:12;;;;;;;;;;;;;;;-144.99;62.95;52162.75;4985986;28;19926;-71
2023/07/25 11:32:39;;;;;;;;;;;;;;;-144.99;62.71;52166.81;4984555;28;19929;-71
2023/07/25 11:35:06;;;;;;;;;;;;;;;-144.99;63.54;52158.66;4984009;28;20414;-71
2023/07/25 11:37:33;;;;;;;;;;;;;;;-144.99;63.26;52146.44;4987047;28;20280;-73
2023/07/25 11:40:11;;;;;;;;;;;;;;;-144.99;62.59;52217.78;4988298;28;19977;-73
2023/07/25 11:42:40;;;;;;;;;;;;;;;-144.99;62.49;52252.44;4985501;28;19934;-73
2023/07/25 11:45:07;;;;;;;;;;;;;;;-144.99;62.46;52227.97;4984846;28;19933;-72
2023/07/25 11:47:33;;;;;;;;;;;;;;;-144.99;62.87;52203.50;4980471;28;20026;-72
2023/07/25 11:50:00;;;;;;;;;;;;;;;-144.99;62.86;52146.44;4986405;28;19937;-72
2023/07/25 11:52:27;;;;;;;;;;;;;;;-144.99;62.94;52234.09;4978407;28;19936;-75
2023/07/25 11:54:53;;;;;;;;;;;;;;;-144.99;63.35;52195.34;4983835;28;19945;-73
2023/07/25 11:57:21;;;;;;;;;;;;;;;-144.99;63.67;52289.13;4981304;28;19933;-72
2023/07/25 11:59:53;;;;;;;;;;;;;;;-144.99;63.56;52232.03;4987479;28;19940;-72
2023/07/25 12:02:20;;;;;;;;;;;;;;;-144.99;63.96;52238.16;4982463;28;19945;-71
2023/07/25 12:04:47;;;;;;;;;;;;;;;-144.99;63.92;52240.19;4976272;28;19937;-72
2023/07/25 12:07:13;;;;;;;;;;;;;;;-144.99;64.10;52246.31;4986156;28;19930;-72
2023/07/25 12:09:40;;;;;;;;;;;;;;;-144.99;64.05;52248.34;4993507;28;19925;-71
2023/07/25 12:12:12;;;;;;;;;;;;;;;-144.99;63.94;52276.88;4990034;28;20414;-72
2023/07/25 12:14:41;;;;;;;;;;;;;;;-144.99;64.14;52227.97;4987572;28;19937;-73
2023/07/25 12:17:07;;;;;;;;;;;;;;;-144.99;63.94;52254.47;4985668;28;19930;-72
2023/07/25 12:19:34;;;;;;;;;;;;;;;-144.99;62.86;52244.28;4982466;28;19944;-72
2023/07/25 12:22:05;;;;;;;;;;;;;;;-144.99;63.43;52289.13;4974139;28;20009;-72